Time;durP1;ratioP1;P1;durP2;ratioP2;P2;SDS_P1;SDS_P2;PMS_P1;PMS_P2;Temp;Humidity;BMP_temperature;BMP_pressure;BME280_temperature;BME280_humidity;BME280_pressure;Samples;Min_cycle;Max_cycle;Signal;HPM_P1;HPM_P2
2023/03/20 00:00:15;;;;;;;3.33;2.50;;;20.80;77.10;;;;;;5039998;28;20203;-63
2023/03/20 00:02:42;;;;;;;3.85;2.25;;;20.80;77.10;;;;;;5045924;28;20195;-62
2023/03/20 00:05:18;;;;;;;2.28;1.90;;;20.80;77.10;;;;;;5048815;28;20203;-63
2023/03/20 00:07:46;;;;;;;3.67;2.15;;;20.80;77.10;;;;;;5042777;28;20199;-64
2023/03/20 00:10:13;;;;;;;9.23;2.50;;;20.80;77.10;;;;;;5040871;28;20200;-67
2023/03/20 00:12:40;;;;;;;3.90;1.98;;;20.80;77.10;;;;;;5043199;28;20218;-64
2023/03/20 00:15:22;;;;;;;3.00;2.20;;;20.80;77.90;;;;;;5040816;28;20219;-64
2023/03/20 00:17:49;;;;;;;4.50;2.38;;;20.80;77.10;;;;;;5048336;28;20192;-62
2023/03/20 00:20:18;;;;;;;3.72;2.20;;;20.70;77.00;;;;;;5044003;28;20683;-63
2023/03/20 00:22:44;;;;;;;2.92;2.38;;;20.70;77.00;;;;;;5046473;28;20215;-63
2023/03/20 00:25:15;;;;;;;5.72;2.38;;;20.70;77.00;;;;;;5049008;28;20215;-62
2023/03/20 00:27:42;;;;;;;3.78;2.00;;;20.70;77.80;;;;;;5047872;28;20286;-65
2023/03/20 00:30:22;;;;;;;6.82;2.72;;;20.70;77.00;;;;;;5043976;28;20199;-62
2023/03/20 00:32:50;;;;;;;2.17;1.65;;;20.70;77.00;;;;;;5043580;28;20658;-63
2023/03/20 00:35:24;;;;;;;2.40;2.03;;;20.70;77.00;;;;;;5041907;28;20223;-63
2023/03/20 00:37:52;;;;;;;3.00;2.22;;;20.70;77.80;;;;;;5044972;28;20191;-62
2023/03/20 00:40:20;;;;;;;3.33;2.00;;;20.70;77.00;;;;;;5045683;28;20207;-61
2023/03/20 00:42:50;;;;;;;4.63;2.42;;;20.70;77.00;;;;;;5043811;28;20210;-62
2023/03/20 00:45:19;;;;;;;4.60;3.42;;;20.70;77.00;;;;;;5047321;28;20206;-63
2023/03/20 00:47:48;;;;;;;3.38;2.33;;;20.70;77.00;;;;;;5041834;28;20198;-62
2023/03/20 00:50:20;;;;;;;2.47;1.83;;;20.60;76.90;;;;;;5043889;28;20199;-63
2023/03/20 00:52:49;;;;;;;3.47;2.25;;;20.60;76.90;;;;;;5045200;28;20215;-65
2023/03/20 00:55:16;;;;;;;1.98;1.80;;;20.60;76.90;;;;;;5043997;28;20211;-63
2023/03/20 00:57:46;;;;;;;4.55;2.53;;;20.60;76.90;;;;;;5047447;28;20207;-61
2023/03/20 01:00:22;;;;;;;3.00;1.98;;;20.60;76.90;;;;;;5047518;28;20196;-62
2023/03/20 01:02:49;;;;;;;2.03;1.65;;;20.60;77.00;;;;;;5046839;28;20191;-62
2023/03/20 01:05:16;;;;;;;3.35;2.30;;;20.60;76.90;;;;;;5048373;28;20202;-64
2023/03/20 01:07:44;;;;;;;3.08;2.22;;;20.60;76.90;;;;;;5044913;28;20223;-62
2023/03/20 01:10:13;;;;;;;3.00;2.20;;;20.60;76.90;;;;;;5048499;28;20269;-68
2023/03/20 01:12:41;;;;;;;3.20;2.55;;;20.60;76.90;;;;;;5041747;28;20686;-64
2023/03/20 01:15:17;;;;;;;3.90;2.40;;;20.60;76.90;;;;;;5044243;28;20223;-65
2023/03/20 01:17:43;;;;;;;3.58;1.90;;;20.60;77.70;;;;;;5047632;28;20198;-63
2023/03/20 01:20:16;;;;;;;2.47;2.20;;;20.60;76.90;;;;;;5047517;28;20647;-62
2023/03/20 01:22:43;;;;;;;2.25;1.80;;;20.50;76.80;;;;;;5040774;28;20784;-63
2023/03/20 01:25:11;;;;;;;3.00;2.40;;;20.50;76.80;;;;;;5044419;28;20208;-62
2023/03/20 01:27:38;;;;;;;2.70;2.05;;;20.50;76.80;;;;;;5043708;28;20579;-65
2023/03/20 01:30:18;;;;;;;3.38;2.33;;;20.50;76.90;;;;;;5037849;28;20198;-62
2023/03/20 01:32:45;;;;;;;3.15;1.85;;;20.50;76.80;;;;;;5043689;28;20202;-62
2023/03/20 01:35:14;;;;;;;2.75;2.00;;;20.50;76.80;;;;;;5043939;28;20610;-62
2023/03/20 01:37:41;;;;;;;4.43;2.13;;;20.50;76.80;;;;;;5047933;28;20204;-63
2023/03/20 01:40:19;;;;;;;2.42;1.75;;;20.50;76.80;;;;;;5043517;28;20529;-62
2023/03/20 01:42:46;;;;;;;2.47;1.83;;;20.50;76.80;;;;;;5043450;28;20203;-63
2023/03/20 01:45:24;;;;;;;2.25;1.95;;;20.50;76.80;;;;;;5096222;27;20557;-61
2023/03/20 01:47:51;;;;;;;2.20;1.98;;;20.40;76.70;;;;;;5074879;28;20650;-63
2023/03/20 01:50:30;;;;;;;1.95;1.42;;;20.40;76.80;;;;;;5078902;28;20198;-62
2023/03/20 01:53:03;;;;;;;2.33;2.13;;;20.40;76.80;;;;;;5076776;28;20201;-61
2023/03/20 01:55:31;;;;;;;2.03;1.60;;;20.40;76.70;;;;;;5079558;28;20577;-66
2023/03/20 01:58:02;;;;;;;2.10;1.80;;;20.40;76.70;;;;;;5083903;28;20194;-69
2023/03/20 02:00:30;;;;;;;2.30;1.88;;;20.40;76.70;;;;;;5082149;28;20199;-63
2023/03/20 02:02:58;;;;;;;3.25;2.58;;;20.40;76.80;;;;;;5079995;28;20198;-66
2023/03/20 02:05:26;;;;;;;3.08;2.17;;;20.40;76.80;;;;;;5080897;28;20698;-64
2023/03/20 02:08:05;;;;;;;1.75;1.30;;;20.40;76.80;;;;;;5079671;28;20197;-63
2023/03/20 02:10:32;;;;;;;2.45;1.77;;;20.40;76.80;;;;;;5079506;28;20202;-63
2023/03/20 02:13:01;;;;;;;3.97;2.30;;;20.40;76.70;;;;;;5083149;28;20198;-66
2023/03/20 02:15:31;;;;;;;2.40;1.90;;;20.40;76.80;;;;;;5081796;28;20218;-63
2023/03/20 02:17:57;;;;;;;2.95;2.13;;;20.40;76.80;;;;;;5084527;28;20195;-63
2023/03/20 02:20:37;;;;;;;3.72;2.13;;;20.40;76.80;;;;;;5081795;28;20199;-62
2023/03/20 02:23:44;;;;;;;2.75;1.90;;;20.40;77.50;;;;;;5075798;28;20210;-63
2023/03/20 02:26:26;;;;;;;1.90;1.60;;;20.30;76.70;;;;;;5082987;28;20203;-63
2023/03/20 02:29:28;;;;;;;2.35;2.15;;;20.30;76.70;;;;;;5087714;28;20200;-62
2023/03/20 02:32:29;;;;;;;4.32;1.73;;;20.30;76.70;;;;;;5083750;28;20243;-64
2023/03/20 02:35:26;;;;;;;2.10;1.90;;;20.30;76.70;;;;;;5084262;28;20232;-64
2023/03/20 02:38:29;;;;;;;3.25;2.30;;;20.30;76.70;;;;;;5091106;28;20217;-63
2023/03/20 02:41:02;;;;;;;3.05;2.22;;;20.30;76.60;;;;;;5052421;28;20194;-64
2023/03/20 02:43:41;;;;;;;2.03;1.55;;;20.30;76.70;;;;;;5078133;28;20234;-65
2023/03/20 02:46:16;;;;;;;3.25;2.33;;;20.30;76.70;;;;;;5081193;28;20202;-68
2023/03/20 02:48:49;;;;;;;2.50;1.95;;;20.30;76.60;;;;;;5078554;28;20203;-65
2023/03/20 02:51:23;;;;;;;2.42;2.03;;;20.30;76.70;;;;;;5084590;28;20205;-63
2023/03/20 02:53:55;;;;;;;2.67;1.45;;;20.30;76.70;;;;;;5079627;28;20705;-62
2023/03/20 02:56:30;;;;;;;2.40;1.75;;;20.20;76.50;;;;;;5067930;28;20190;-64
2023/03/20 02:59:03;;;;;;;4.68;2.20;;;20.20;76.50;;;;;;5069291;28;20197;-63
2023/03/20 03:01:35;;;;;;;2.00;1.55;;;20.20;76.50;;;;;;5062433;28;20207;-64
2023/03/20 03:04:07;;;;;;;2.05;1.77;;;20.20;76.50;;;;;;5072090;28;20225;-67
2023/03/20 03:06:37;;;;;;;2.00;1.80;;;20.20;76.60;;;;;;5064357;28;20205;-62
2023/03/20 03:09:11;;;;;;;2.28;1.90;;;20.20;76.50;;;;;;5069845;28;20222;-63
2023/03/20 03:11:44;;;;;;;2.70;1.85;;;20.20;76.50;;;;;;5065665;28;20198;-62
2023/03/20 03:14:17;;;;;;;2.38;1.75;;;20.20;76.50;;;;;;5062748;28;20199;-63
2023/03/20 03:16:46;;;;;;;3.60;2.05;;;20.20;76.50;;;;;;5066460;28;20199;-62
2023/03/20 03:19:17;;;;;;;2.25;1.80;;;20.20;76.50;;;;;;5061301;28;20210;-68
2023/03/20 03:21:45;;;;;;;2.22;1.67;;;20.20;76.50;;;;;;5068262;28;20218;-63
2023/03/20 03:24:28;;;;;;;1.83;1.73;;;20.20;76.50;;;;;;5067958;28;20594;-62
2023/03/20 03:26:56;;;;;;;1.90;1.70;;;20.20;76.50;;;;;;5060594;28;20223;-66
2023/03/20 03:29:25;;;;;;;2.67;1.42;;;20.10;76.40;;;;;;5068191;28;20210;-62
2023/03/20 03:31:53;;;;;;;2.10;1.90;;;20.10;76.40;;;;;;5068571;28;20658;-62
2023/03/20 03:34:23;;;;;;;2.40;1.80;;;20.10;76.40;;;;;;5066960;28;20199;-66
2023/03/20 03:36:54;;;;;;;2.20;1.80;;;20.10;77.20;;;;;;5075889;28;20195;-62
2023/03/20 03:39:32;;;;;;;2.40;2.20;;;20.10;76.40;;;;;;5072434;28;20203;-66
2023/03/20 03:42:07;;;;;;;2.05;1.77;;;20.10;76.40;;;;;;5071917;28;20195;-64
2023/03/20 03:44:42;;;;;;;2.13;1.88;;;20.10;76.40;;;;;;5064741;28;20698;-62
2023/03/20 03:47:12;;;;;;;2.63;2.30;;;20.10;76.40;;;;;;5069532;28;20252;-61
2023/03/20 03:49:43;;;;;;;2.45;1.70;;;20.10;76.40;;;;;;5065110;28;20210;-62
2023/03/20 03:52:15;;;;;;;1.80;1.52;;;20.10;76.50;;;;;;5071183;28;20666;-62
2023/03/20 03:54:47;;;;;;;3.35;2.08;;;20.10;76.40;;;;;;5069794;28;20198;-63
2023/03/20 03:57:17;;;;;;;1.85;1.65;;;20.10;76.40;;;;;;5069458;28;20195;-66
2023/03/20 03:59:49;;;;;;;2.05;1.85;;;20.10;76.50;;;;;;5074173;28;20201;-64
2023/03/20 04:02:18;;;;;;;2.35;1.55;;;20.10;76.40;;;;;;5070275;28;20195;-66
2023/03/20 04:04:49;;;;;;;3.67;1.80;;;20.10;76.40;;;;;;5064027;28;20250;-61
2023/03/20 04:07:16;;;;;;;1.92;1.77;;;20.10;76.40;;;;;;5069931;28;20195;-63
2023/03/20 04:09:44;;;;;;;2.60;1.42;;;20.10;76.40;;;;;;5068502;28;20191;-62
2023/03/20 04:12:33;;;;;;;2.88;1.80;;;20.00;76.20;;;;;;5060231;28;20678;-62
2023/03/20 04:15:00;;;;;;;2.05;1.65;;;20.00;77.10;;;;;;5062230;28;20647;-64
2023/03/20 04:17:27;;;;;;;2.83;1.73;;;20.00;76.20;;;;;;5065124;28;20571;-62
2023/03/20 04:19:53;;;;;;;1.80;1.60;;;20.00;76.20;;;;;;5062867;28;20199;-61
2023/03/20 04:22:20;;;;;;;2.10;1.60;;;20.00;76.20;;;;;;5072163;28;20210;-64
2023/03/20 04:24:48;;;;;;;2.38;1.85;;;20.00;76.30;;;;;;5068341;28;20219;-66
2023/03/20 04:27:15;;;;;;;2.95;1.85;;;20.00;76.30;;;;;;5071903;28;20198;-61
2023/03/20 04:29:43;;;;;;;1.67;1.58;;;20.00;76.20;;;;;;5063131;28;20195;-63
2023/03/20 04:32:10;;;;;;;2.65;1.70;;;20.00;76.20;;;;;;5073774;28;20198;-64
2023/03/20 04:34:36;;;;;;;2.17;1.63;;;20.00;76.20;;;;;;5059957;28;20198;-62
2023/03/20 04:37:04;;;;;;;1.77;1.40;;;20.00;76.20;;;;;;5065583;28;20190;-63
2023/03/20 04:39:30;;;;;;;3.25;1.67;;;20.00;76.20;;;;;;5064143;28;20252;-62
2023/03/20 04:41:58;;;;;;;2.97;2.20;;;20.00;76.30;;;;;;5067637;28;20195;-63
2023/03/20 04:44:25;;;;;;;2.65;1.55;;;20.00;76.20;;;;;;5062914;28;20230;-62
2023/03/20 04:46:52;;;;;;;2.78;1.75;;;20.00;76.20;;;;;;5068857;28;20195;-63
2023/03/20 04:49:19;;;;;;;4.45;2.67;;;19.90;76.10;;;;;;5058829;28;20665;-66
2023/03/20 04:51:45;;;;;;;1.73;1.52;;;19.90;76.10;;;;;;5061114;28;20210;-61
2023/03/20 04:54:12;;;;;;;2.40;1.90;;;19.90;76.20;;;;;;5061283;28;20214;-62
2023/03/20 04:56:39;;;;;;;2.15;1.95;;;19.90;76.40;;;;;;5060198;28;20199;-62
2023/03/20 04:59:07;;;;;;;2.00;1.80;;;19.90;76.30;;;;;;5053174;28;20191;-62
2023/03/20 05:01:33;;;;;;;2.17;1.90;;;19.90;76.30;;;;;;5064165;28;20222;-64
2023/03/20 05:04:00;;;;;;;3.17;2.00;;;19.90;76.20;;;;;;5065032;28;20199;-65
2023/03/20 05:06:27;;;;;;;2.60;1.95;;;19.90;77.00;;;;;;5063882;28;20322;-61
2023/03/20 05:08:54;;;;;;;1.70;1.55;;;19.90;76.20;;;;;;5063895;28;20187;-62
2023/03/20 05:11:20;;;;;;;2.17;1.70;;;19.90;76.20;;;;;;5063454;28;20696;-62
2023/03/20 05:13:47;;;;;;;1.80;1.50;;;19.90;76.20;;;;;;5058693;28;20191;-62
2023/03/20 05:16:15;;;;;;;2.30;2.10;;;19.90;76.20;;;;;;5062253;28;20203;-61
2023/03/20 05:18:42;;;;;;;4.38;1.98;;;19.90;76.20;;;;;;5063776;28;20499;-64
2023/03/20 05:21:09;;;;;;;2.50;1.77;;;19.90;76.20;;;;;;5058930;28;20209;-62
2023/03/20 05:23:35;;;;;;;1.50;1.40;;;19.90;76.20;;;;;;5063524;28;20218;-61
2023/03/20 05:26:02;;;;;;;1.95;1.63;;;19.90;76.20;;;;;;5062026;28;20225;-65
2023/03/20 05:28:30;;;;;;;1.77;1.55;;;19.90;76.50;;;;;;5057939;28;21502;-62
2023/03/20 05:30:57;;;;;;;3.10;1.85;;;19.90;76.20;;;;;;5063406;28;20198;-63
2023/03/20 05:33:25;;;;;;;2.13;1.88;;;19.90;76.20;;;;;;5067744;28;20668;-62
2023/03/20 05:35:51;;;;;;;2.65;1.85;;;19.90;76.20;;;;;;5062339;28;20198;-65
2023/03/20 05:38:21;;;;;;;1.30;1.17;;;19.90;76.20;;;;;;5063827;28;20600;-65
2023/03/20 05:40:48;;;;;;;1.52;1.40;;;19.90;76.20;;;;;;5062576;28;20221;-66
2023/03/20 05:43:15;;;;;;;2.10;1.50;;;19.90;76.20;;;;;;5062185;28;20749;-66
2023/03/20 05:45:44;;;;;;;2.72;2.00;;;19.90;76.20;;;;;;5061570;28;20211;-62
2023/03/20 05:48:11;;;;;;;1.73;1.63;;;19.90;76.20;;;;;;5063046;28;20821;-62
2023/03/20 05:50:39;;;;;;;1.90;1.80;;;19.90;76.20;;;;;;5061764;28;20194;-62
2023/03/20 05:53:06;;;;;;;2.80;2.40;;;19.80;76.10;;;;;;5064114;28;20198;-64
2023/03/20 05:55:33;;;;;;;1.80;1.48;;;19.90;76.20;;;;;;5062378;28;20191;-63
2023/03/20 05:57:59;;;;;;;1.80;1.55;;;19.80;76.10;;;;;;5062021;28;20209;-64
2023/03/20 06:00:26;;;;;;;1.75;1.65;;;19.80;76.10;;;;;;5065524;28;20194;-62
2023/03/20 06:02:53;;;;;;;2.05;1.75;;;19.80;76.00;;;;;;5067989;28;20203;-61
2023/03/20 06:05:20;;;;;;;1.95;1.75;;;19.80;76.10;;;;;;5060539;28;20225;-65
2023/03/20 06:07:48;;;;;;;2.30;1.88;;;19.80;76.00;;;;;;5054207;28;20194;-66
2023/03/20 06:10:15;;;;;;;2.30;1.70;;;19.80;76.00;;;;;;5055106;28;20198;-65
2023/03/20 06:12:41;;;;;;;2.30;1.73;;;19.80;76.00;;;;;;5063207;28;20199;-61
2023/03/20 06:15:09;;;;;;;2.00;1.70;;;19.80;76.10;;;;;;5065753;28;20198;-61
2023/03/20 06:17:36;;;;;;;2.78;2.00;;;19.80;76.00;;;;;;5059028;28;20685;-64
2023/03/20 06:20:03;;;;;;;1.90;1.70;;;19.80;75.70;;;;;;5065207;28;20199;-62
2023/03/20 06:22:29;;;;;;;2.05;1.85;;;19.80;75.60;;;;;;5068608;28;20302;-62
2023/03/20 06:24:57;;;;;;;1.65;1.52;;;19.90;75.70;;;;;;5065221;28;20215;-62
2023/03/20 06:27:26;;;;;;;2.95;1.98;;;19.90;75.60;;;;;;5066331;28;20203;-62
2023/03/20 06:29:52;;;;;;;2.95;2.00;;;19.90;75.60;;;;;;5068468;28;20288;-62
2023/03/20 06:32:19;;;;;;;1.58;1.48;;;19.90;75.50;;;;;;5069020;28;20198;-64
2023/03/20 06:34:46;;;;;;;1.83;1.60;;;19.90;75.50;;;;;;5069714;28;20195;-62
2023/03/20 06:37:13;;;;;;;1.52;1.42;;;19.90;75.40;;;;;;5070331;28;20205;-67
2023/03/20 06:39:40;;;;;;;1.92;1.70;;;19.90;75.40;;;;;;5071914;28;20203;-62
2023/03/20 06:42:08;;;;;;;1.45;1.35;;;20.00;75.50;;;;;;5068012;28;20198;-62
2023/03/20 06:44:35;;;;;;;2.17;1.73;;;19.90;75.40;;;;;;5068860;28;20362;-64
2023/03/20 06:47:01;;;;;;;1.60;1.50;;;19.90;75.40;;;;;;5069573;28;20562;-62
2023/03/20 06:49:28;;;;;;;1.88;1.60;;;20.00;75.40;;;;;;5067681;28;20230;-62
2023/03/20 06:51:55;;;;;;;2.42;1.70;;;20.00;75.50;;;;;;5056884;28;20192;-62
2023/03/20 06:54:22;;;;;;;1.50;1.40;;;20.00;75.40;;;;;;5062750;28;20198;-63
2023/03/20 06:56:49;;;;;;;2.35;1.67;;;20.00;75.50;;;;;;5069161;28;20203;-65
2023/03/20 06:59:17;;;;;;;1.90;1.55;;;20.00;75.40;;;;;;5057068;28;20667;-68
2023/03/20 07:01:44;;;;;;;2.63;1.75;;;20.00;75.40;;;;;;5064149;28;20198;-64
2023/03/20 07:04:11;;;;;;;2.22;1.70;;;20.00;75.40;;;;;;5067872;28;20203;-69
2023/03/20 07:06:37;;;;;;;2.88;1.65;;;20.00;75.30;;;;;;5070587;28;20233;-63
2023/03/20 07:09:04;;;;;;;1.80;1.67;;;20.00;75.30;;;;;;5055389;28;20207;-60
2023/03/20 07:11:31;;;;;;;1.63;1.38;;;20.00;75.10;;;;;;5068617;28;20204;-66
2023/03/20 07:13:58;;;;;;;1.70;1.60;;;20.00;75.10;;;;;;5062436;28;20194;-64
2023/03/20 07:16:27;;;;;;;1.65;1.33;;;20.00;75.10;;;;;;5071919;28;20562;-61
2023/03/20 07:18:53;;;;;;;2.47;1.77;;;20.00;75.90;;;;;;5059246;28;20286;-65
2023/03/20 07:21:22;;;;;;;2.72;1.92;;;20.10;75.10;;;;;;5068861;28;20198;-64
2023/03/20 07:23:49;;;;;;;3.28;1.65;;;20.10;75.10;;;;;;5061654;28;20655;-62
2023/03/20 07:26:16;;;;;;;2.42;1.45;;;20.10;75.10;;;;;;5068604;28;20254;-61
2023/03/20 07:28:43;;;;;;;1.73;1.40;;;20.10;75.10;;;;;;5060722;28;20218;-70
2023/03/20 07:31:18;;;;;;;2.15;1.60;;;20.10;75.10;;;;;;5066140;28;20190;-61
2023/03/20 07:33:47;;;;;;;1.70;1.60;;;20.10;75.00;;;;;;5069668;28;20198;-61
2023/03/20 07:36:13;;;;;;;2.20;1.70;;;20.10;74.90;;;;;;5067808;28;20199;-65
2023/03/20 07:38:40;;;;;;;1.73;1.63;;;20.10;74.80;;;;;;5075860;28;20201;-62
2023/03/20 07:41:07;;;;;;;2.03;1.80;;;20.10;74.70;;;;;;5065122;28;20554;-61
2023/03/20 07:43:34;;;;;;;2.33;1.70;;;20.10;74.80;;;;;;5067499;28;20205;-62
2023/03/20 07:46:03;;;;;;;2.83;1.80;;;20.10;74.80;;;;;;5066798;28;20219;-61
2023/03/20 07:48:29;;;;;;;1.50;1.40;;;20.10;74.90;;;;;;5067903;28;20187;-61
2023/03/20 07:50:57;;;;;;;1.70;1.40;;;20.10;74.90;;;;;;5069422;28;20586;-62
2023/03/20 07:53:24;;;;;;;2.08;1.88;;;20.10;75.00;;;;;;5071582;28;20194;-64
2023/03/20 07:55:51;;;;;;;2.83;1.85;;;20.20;75.10;;;;;;5068872;28;20296;-61
2023/03/20 07:58:18;;;;;;;1.80;1.70;;;20.20;75.10;;;;;;5079251;28;20202;-65
2023/03/20 08:00:44;;;;;;;1.73;1.50;;;20.20;75.20;;;;;;5063789;28;20202;-64
2023/03/20 08:03:11;;;;;;;1.77;1.40;;;20.20;75.20;;;;;;5065381;28;20545;-61
2023/03/20 08:05:39;;;;;;;1.48;1.35;;;20.20;75.10;;;;;;5068985;28;20222;-62
2023/03/20 08:08:07;;;;;;;1.55;1.45;;;20.20;75.90;;;;;;5069405;28;20190;-65
2023/03/20 08:10:34;;;;;;;1.38;1.27;;;20.20;75.10;;;;;;5065396;28;20198;-65
2023/03/20 08:13:00;;;;;;;1.67;1.58;;;20.30;75.20;;;;;;5064206;28;20206;-62
2023/03/20 08:15:27;;;;;;;2.50;1.52;;;20.30;75.20;;;;;;5072515;28;20198;-61
2023/03/20 08:17:54;;;;;;;1.55;1.40;;;20.30;75.20;;;;;;5070116;28;20198;-65
2023/03/20 08:20:21;;;;;;;2.13;1.70;;;20.30;75.10;;;;;;5061324;28;20268;-62
2023/03/20 08:22:48;;;;;;;1.95;1.65;;;20.30;75.10;;;;;;5061219;28;20633;-61
2023/03/20 08:25:17;;;;;;;1.90;1.45;;;20.30;75.10;;;;;;5079933;28;20221;-61
2023/03/20 08:27:44;;;;;;;2.10;1.52;;;20.30;75.10;;;;;;5066212;28;20206;-62
2023/03/20 08:30:12;;;;;;;1.60;1.33;;;20.30;75.10;;;;;;5068446;28;20199;-61
2023/03/20 08:32:39;;;;;;;1.42;1.33;;;20.30;75.10;;;;;;5067717;28;20558;-62
2023/03/20 08:35:07;;;;;;;2.05;1.85;;;20.30;75.00;;;;;;5068205;28;20195;-61
2023/03/20 08:37:34;;;;;;;1.35;1.25;;;20.30;75.00;;;;;;5061114;28;20309;-65
2023/03/20 08:40:01;;;;;;;1.58;1.23;;;20.40;75.10;;;;;;5065947;28;20218;-61
2023/03/20 08:42:29;;;;;;;1.52;1.42;;;20.40;75.10;;;;;;5068606;28;20198;-65
2023/03/20 08:44:56;;;;;;;1.50;1.40;;;20.40;75.10;;;;;;5061285;28;20623;-61
2023/03/20 08:47:22;;;;;;;1.80;1.40;;;20.40;75.10;;;;;;5065068;28;20231;-64
2023/03/20 08:49:49;;;;;;;1.77;1.48;;;20.40;75.00;;;;;;5065085;28;20970;-61
2023/03/20 08:52:16;;;;;;;1.92;1.33;;;20.40;75.80;;;;;;5067984;28;20567;-65
2023/03/20 08:54:43;;;;;;;3.00;1.48;;;20.40;75.00;;;;;;5056492;28;20191;-69
2023/03/20 08:57:09;;;;;;;1.80;1.40;;;20.40;75.00;;;;;;5066091;28;20287;-61
2023/03/20 08:59:38;;;;;;;2.63;1.47;;;20.40;75.00;;;;;;5070536;28;20708;-66
2023/03/20 09:02:04;;;;;;;2.20;1.10;;;20.40;74.90;;;;;;5066516;28;20465;-65
2023/03/20 09:04:31;;;;;;;1.52;1.30;;;20.40;74.90;;;;;;5063447;28;20966;-61
2023/03/20 09:07:00;;;;;;;1.90;1.70;;;20.40;74.90;;;;;;5075356;28;20575;-62
2023/03/20 09:09:28;;;;;;;2.05;1.60;;;20.40;74.80;;;;;;5068433;28;20206;-65
2023/03/20 09:11:55;;;;;;;1.65;1.52;;;20.40;74.80;;;;;;5064189;28;20202;-63
2023/03/20 09:14:22;;;;;;;1.95;1.33;;;20.40;74.90;;;;;;5070250;28;20202;-63
2023/03/20 09:16:50;;;;;;;2.55;1.70;;;20.40;74.80;;;;;;5066016;28;20563;-63
2023/03/20 09:19:18;;;;;;;1.40;1.30;;;20.40;74.80;;;;;;5070602;28;20273;-62
2023/03/20 09:21:45;;;;;;;1.40;1.20;;;20.40;74.80;;;;;;5058788;28;20233;-63
2023/03/20 09:24:11;;;;;;;1.80;1.60;;;20.40;74.80;;;;;;5075364;28;20195;-60
2023/03/20 09:26:38;;;;;;;1.60;1.50;;;20.40;74.80;;;;;;5067992;28;20249;-63
2023/03/20 09:29:05;;;;;;;2.53;2.30;;;20.40;74.80;;;;;;5064323;28;20199;-59
2023/03/20 09:31:33;;;;;;;2.20;1.55;;;20.40;75.00;;;;;;5059082;28;20195;-52
2023/03/20 09:34:01;;;;;;;1.95;1.45;;;20.40;75.10;;;;;;5062157;28;20187;-52
2023/03/20 09:36:27;;;;;;;1.50;1.40;;;20.50;75.20;;;;;;5064378;28;20199;-53
2023/03/20 09:38:54;;;;;;;2.70;1.45;;;20.50;75.30;;;;;;5068521;28;20187;-51
2023/03/20 09:41:22;;;;;;;3.10;1.50;;;20.50;75.30;;;;;;5063409;28;20210;-62
2023/03/20 09:44:00;;;;;;;2.35;1.55;;;20.50;75.60;;;;;;5055962;28;20577;-60
2023/03/20 09:46:41;;;;;;;6.28;1.55;;;20.50;75.60;;;;;;5063068;28;20300;-61
2023/03/20 09:49:17;;;;;;;3.10;1.35;;;20.50;76.50;;;;;;5071208;28;20252;-62
2023/03/20 09:51:48;;;;;;;2.42;1.30;;;20.50;75.60;;;;;;5072882;28;20202;-60
2023/03/20 09:54:24;;;;;;;1.88;1.70;;;20.50;75.60;;;;;;5074001;28;20198;-63
2023/03/20 09:56:52;;;;;;;1.63;1.25;;;20.50;75.60;;;;;;5062100;28;20194;-64
2023/03/20 09:59:20;;;;;;;7.72;1.65;;;20.50;75.60;;;;;;5059868;28;20468;-59
2023/03/20 10:01:51;;;;;;;5.68;1.35;;;20.60;75.70;;;;;;5070005;28;20228;-60
2023/03/20 10:04:20;;;;;;;1.42;1.30;;;20.60;75.60;;;;;;5066314;28;20201;-63
2023/03/20 10:06:47;;;;;;;1.80;1.10;;;20.60;75.70;;;;;;5062095;28;20218;-60
2023/03/20 10:09:17;;;;;;;2.05;1.50;;;20.60;75.70;;;;;;5071793;28;20202;-61
2023/03/20 10:12:22;;;;;;;2.58;1.58;;;20.50;75.50;;;;;;5065229;28;20195;-64
2023/03/20 10:14:57;;;;;;;1.58;1.23;;;20.60;75.60;;;;;;5066995;28;20195;-58
2023/03/20 10:17:36;;;;;;;1.85;1.27;;;20.60;75.60;;;;;;5073405;28;20207;-61
2023/03/20 10:20:12;;;;;;;2.20;1.25;;;20.60;75.60;;;;;;5071212;28;20655;-60
2023/03/20 10:22:42;;;;;;;3.40;1.30;;;20.60;75.60;;;;;;5064536;28;20225;-61
2023/03/20 10:25:22;;;;;;;15.00;1.52;;;20.60;75.60;;;;;;5071813;28;20209;-64
2023/03/20 10:27:53;;;;;;;1.67;1.45;;;20.60;75.60;;;;;;5075700;28;20226;-60
2023/03/20 10:30:33;;;;;;;1.70;1.30;;;20.60;75.60;;;;;;5069569;28;20194;-59
2023/03/20 10:33:13;;;;;;;1.90;1.48;;;20.60;75.60;;;;;;5062344;28;20197;-60
2023/03/20 10:35:47;;;;;;;1.13;1.03;;;20.60;75.60;;;;;;5066487;28;20198;-61
2023/03/20 10:38:26;;;;;;;1.40;1.17;;;20.60;75.60;;;;;;5065136;28;20459;-60
2023/03/20 10:40:56;;;;;;;7.28;1.50;;;20.60;75.50;;;;;;5063195;28;20631;-67
2023/03/20 10:43:27;;;;;;;2.10;1.43;;;20.60;75.70;;;;;;5073939;28;20861;-62
2023/03/20 10:46:00;;;;;;;1.93;1.57;;;20.60;76.00;;;;;;5062824;28;20959;-56
2023/03/20 10:48:33;;;;;;;5.88;1.73;;;20.60;76.30;;;;;;5070196;28;20465;-60
2023/03/20 10:51:02;;;;;;;3.50;1.63;;;20.60;76.40;;;;;;5065402;28;20194;-64
2023/03/20 10:53:37;;;;;;;5.05;1.50;;;20.60;75.90;;;;;;5071135;28;20194;-68
2023/03/20 10:56:08;;;;;;;1.50;1.40;;;20.60;75.90;;;;;;5066958;28;20194;-62
2023/03/20 10:58:39;;;;;;;4.50;1.83;;;20.60;76.10;;;;;;5068843;28;20205;-63
2023/03/20 11:01:06;;;;;;;4.82;1.33;;;20.60;76.40;;;;;;5058743;28;20202;-60
2023/03/20 11:03:37;;;;;;;3.50;1.67;;;20.70;76.50;;;;;;5060194;28;20195;-59
2023/03/20 11:06:14;;;;;;;3.22;1.40;;;20.70;76.40;;;;;;5068793;28;20453;-61
2023/03/20 11:08:42;;;;;;;1.63;1.30;;;20.70;76.50;;;;;;5071162;28;20199;-56
2023/03/20 11:11:10;;;;;;;2.40;1.50;;;20.80;76.60;;;;;;5072803;28;20211;-55
2023/03/20 11:13:40;;;;;;;2.03;1.40;;;20.80;76.70;;;;;;5067475;28;20458;-54
2023/03/20 11:16:17;;;;;;;4.90;1.87;;;20.80;76.60;;;;;;5071035;28;20455;-56
2023/03/20 11:18:44;;;;;;;3.37;1.30;;;20.80;76.70;;;;;;5072106;28;21054;-56
2023/03/20 11:21:19;;;;;;;1.57;1.40;;;20.90;76.90;;;;;;5070202;28;20461;-55
2023/03/20 11:23:45;;;;;;;1.50;1.33;;;20.90;77.00;;;;;;5073892;28;20453;-54
2023/03/20 11:26:15;;;;;;;4.65;1.42;;;20.90;77.00;;;;;;5081671;28;20652;-53
2023/03/20 11:28:48;;;;;;;1.50;1.13;;;20.90;77.10;;;;;;5071436;28;20199;-57
2023/03/20 11:31:19;;;;;;;2.30;1.43;;;20.90;77.10;;;;;;5067494;28;20937;-59
2023/03/20 11:33:52;;;;;;;1.87;1.20;;;20.90;77.20;;;;;;5070570;28;20465;-57
2023/03/20 11:36:26;;;;;;;1.10;1.00;;;20.90;78.00;;;;;;5068907;28;20468;-56
2023/03/20 11:38:58;;;;;;;2.47;1.10;;;20.90;77.20;;;;;;5064358;28;20453;-59
2023/03/20 11:41:26;;;;;;;2.47;1.20;;;20.90;77.30;;;;;;5071718;28;20476;-65
2023/03/20 11:43:54;;;;;;;2.70;1.50;;;21.00;77.40;;;;;;5066258;28;21032;-55
2023/03/20 11:46:22;;;;;;;1.57;1.27;;;21.00;77.50;;;;;;5066289;28;20449;-56
2023/03/20 11:49:04;;;;;;;1.30;1.20;;;21.00;77.50;;;;;;5065711;28;20542;-53
2023/03/20 11:51:34;;;;;;;1.70;1.40;;;21.00;77.60;;;;;;5068563;28;20900;-59
2023/03/20 11:54:03;;;;;;;3.80;1.20;;;21.00;77.60;;;;;;5064004;28;20576;-59
2023/03/20 11:56:32;;;;;;;1.63;1.13;;;21.00;77.70;;;;;;5072552;28;20460;-66
2023/03/20 11:59:03;;;;;;;1.57;1.40;;;21.00;77.70;;;;;;5062558;28;20457;-56
2023/03/20 12:01:43;;;;;;;1.50;1.40;;;21.00;77.70;;;;;;5063690;28;20496;-55
2023/03/20 12:04:12;;;;;;;1.97;1.33;;;21.00;77.80;;;;;;5070973;28;20463;-56
2023/03/20 12:06:46;;;;;;;1.50;1.20;;;21.00;77.80;;;;;;5068924;28;20495;-66
2023/03/20 12:09:26;;;;;;;2.80;1.40;;;21.00;77.80;;;;;;5073623;28;20542;-63
2023/03/20 12:11:55;;;;;;;2.27;1.20;;;21.10;78.10;;;;;;5052303;28;20486;-63
2023/03/20 12:14:31;;;;;;;1.10;1.00;;;21.10;78.10;;;;;;5072425;28;20460;-68
2023/03/20 12:17:30;;;;;;;1.50;1.10;;;21.10;78.00;;;;;;5056894;28;20456;-57
2023/03/20 12:20:04;;;;;;;1.80;1.37;;;21.10;78.00;;;;;;5049238;28;20491;-55
2023/03/20 12:22:37;;;;;;;1.70;1.07;;;21.10;78.00;;;;;;5061300;28;20476;-58
2023/03/20 12:25:16;;;;;;;2.33;1.37;;;21.20;78.10;;;;;;5064618;28;20476;-57
2023/03/20 12:27:47;;;;;;;3.10;1.30;;;21.20;78.00;;;;;;5073195;28;21242;-55
2023/03/20 12:30:19;;;;;;;1.77;1.00;;;21.20;78.00;;;;;;5066483;28;20550;-57
2023/03/20 12:32:53;;;;;;;1.47;1.30;;;21.20;78.00;;;;;;5070199;28;20805;-56
2023/03/20 12:35:31;;;;;;;1.10;0.80;;;21.20;78.00;;;;;;5066900;28;20470;-57
2023/03/20 12:37:59;;;;;;;1.43;1.00;;;21.20;77.90;;;;;;5063328;28;20463;-63
2023/03/20 12:40:37;;;;;;;1.50;1.00;;;21.20;77.90;;;;;;5067491;28;20452;-59
2023/03/20 12:43:10;;;;;;;2.47;1.03;;;21.20;77.90;;;;;;5068434;28;20508;-61
2023/03/20 12:45:40;;;;;;;1.90;1.20;;;21.30;78.00;;;;;;5054625;28;20461;-60
2023/03/20 12:48:32;;;;;;;1.10;1.00;;;21.30;78.00;;;;;;5062615;28;20482;-62
2023/03/20 12:51:05;;;;;;;1.80;1.20;;;21.20;77.90;;;;;;5068994;28;20452;-58
2023/03/20 12:53:50;;;;;;;1.20;1.00;;;21.30;78.10;;;;;;5063882;28;20820;-54
2023/03/20 12:56:26;;;;;;;1.40;1.10;;;21.30;78.00;;;;;;5059692;28;20469;-51
2023/03/20 12:58:59;;;;;;;1.23;1.13;;;21.30;78.00;;;;;;5062611;28;20464;-53
2023/03/20 13:01:31;;;;;;;1.30;1.20;;;21.30;78.00;;;;;;5070273;28;20510;-60
2023/03/20 13:04:19;;;;;;;3.20;1.23;;;21.30;78.00;;;;;;5068059;28;20984;-55